Portada
METAR-TAF:

METAR-TAF

Aeroports :

Nashua, Nova Hampshire, Estats Units d'Amèrica

latitud: 42-47N, longitud: 071-31W, altitud: 61 m

Observació

L'informe es va fer fa 16 minuts, a les 21:56 UTC
Vent 8 kt del Sud-Est
Temperatura 18°C
Humitat 37%
Pressió 1026 hPa
Visibilitat: 16.1 km
Cel clar

METAR: KASH 242156Z 13008KT 10SM CLR 18/03 A3029 RMK AO2 SLP261 T01780033

Hora: 18:12 (22:12 UTC)


TAF: manca

Observacions i pronòstics meteorològics de més de 4000 aeroports (METAR i TAF).

Les estacions disponibles són els punts grocs i vermells al mapa.

Posi el ratolí al punt desitjat per veure el nom de l'estació.

Feu clic per veure les observacions i els pronòstics meteorològics.

Per canviar el mapa: feu clic els botons verds amb una creu de color negre per apropar; al botó verd amb un guió per allunyar la imatge; o en les fletxes verdes per a mapes adjacents.


METAR-TAF: